1873 NOT_NAMED (1873001S16058)


IBTrACS version v04r00. Visit IBTrACS website for data access.
Please direct all questions to the IBTrACS Q and A forum

Storm track - Intensity - Wind Radii - Intensity Data - Source Data - All data

Summary Information

Storm ID 1873001S16058
Start Jan 1 06Z
End Jan 9 06Z
ATCF IDs
Track status Best track data.

Storm track plot

Map of storm track

Intensity plots

No Intensity information for this storm


Radial wind information

No radial wind information for this storm


Position and Intensity Table

BASIN ISO_TIME_________ NATURE LAT LON
degrees north degrees east
SI 1873-01-01 06:00:00 NR -16.00 58.20
SI 09:00:00 NR -16.02 58.16
SI 12:00:00 NR -16.05 58.11
SI 15:00:00 NR -16.09 58.06
SI 18:00:00 NR -16.14 57.98
SI 21:00:00 NR -16.21 57.88
SI 1873-01-02 00:00:00 NR -16.31 57.76
SI 03:00:00 NR -16.44 57.60
SI 06:00:00 NR -16.60 57.40
SI 09:00:00 NR -16.80 57.16
SI 12:00:00 NR -17.04 56.88
SI 15:00:00 NR -17.31 56.56
SI 18:00:00 NR -17.61 56.23
SI 21:00:00 NR -17.93 55.88
SI 1873-01-03 00:00:00 NR -18.27 55.52
SI 03:00:00 NR -18.63 55.15
SI 06:00:00 NR -19.00 54.80
SI 09:00:00 NR -19.40 54.46
SI 12:00:00 NR -19.82 54.11
SI 15:00:00 NR -20.25 53.77
SI 18:00:00 NR -20.68 53.43
SI 21:00:00 NR -21.10 53.12
SI 1873-01-04 00:00:00 NR -21.50 52.82
SI 03:00:00 NR -21.87 52.54
SI 06:00:00 NR -22.20 52.30
SI 09:00:00 NR -22.45 52.10
SI 12:00:00 NR -22.67 51.94
SI 15:00:00 NR -22.85 51.81
SI 18:00:00 NR -23.01 51.69
SI 21:00:00 NR -23.16 51.59
SI 1873-01-05 00:00:00 NR -23.30 51.49
SI 03:00:00 NR -23.44 51.40
SI 06:00:00 NR -23.60 51.30
SI 09:00:00 NR -23.77 51.18
SI 12:00:00 NR -23.95 51.05
SI 15:00:00 NR -24.13 50.93
SI 18:00:00 NR -24.33 50.80
SI 21:00:00 NR -24.54 50.66
SI 1873-01-06 00:00:00 NR -24.77 50.52
SI 03:00:00 NR -25.02 50.37
SI 06:00:00 NR -25.30 50.20
SI 09:00:00 NR -25.57 50.03
SI 12:00:00 NR -25.87 49.86
SI 15:00:00 NR -26.19 49.67
SI 18:00:00 NR -26.54 49.47
SI 21:00:00 NR -26.93 49.25
SI 1873-01-07 00:00:00 NR -27.35 49.02
SI 03:00:00 NR -27.80 48.77
SI 06:00:00 NR -28.30 48.50
SI 09:00:00 NR -28.92 48.16
SI 12:00:00 NR -29.60 47.80
SI 15:00:00 NR -30.31 47.42
SI 18:00:00 NR -31.02 47.03
SI 21:00:00 NR -31.71 46.65
SI 1873-01-08 00:00:00 NR -32.35 46.29
SI 03:00:00 NR -32.92 45.97
SI 06:00:00 NR -33.40 45.70
SI 09:00:00 NR -33.76 45.50
SI 12:00:00 NR -34.02 45.35
SI 15:00:00 NR -34.19 45.26
SI 18:00:00 NR -34.28 45.22
SI 21:00:00 NR -34.31 45.21
SI 1873-01-09 00:00:00 NR -34.30 45.22
SI 03:00:00 NR -34.26 45.26
SI 06:00:00 NR -34.20 45.30

Source Information

Agency Information
USA
TOKYO
CMA
HKO
NEWDELHI
REUNION WMO-Best-Tracks.txt:Line=966:xxxx873142
BOM
NADI
WELLINGTON
DS824
TD9636
TD9635
NEUMANN
MLC

All available IBTrACS Data

SEASON BASIN SUBBASIN ISO_TIME_________ NATURE LAT LON WMO AGENCY DIST2LAND LANDFALL IFLAG USA SSHS REUNION LAT REUNION LON REUNION TYPE REUNION TNUM STORM SPEED STORM DIR
Year degrees north degrees east km km 1 degrees north degrees east 1 kts degrees
1873 SI MM 1873-01-01 06:00:00 NR -16.00 58.20 reunion 461 461 _____O________ -1 -16.00 58.20 99 9.90 1 236
1873 SI MM 09:00:00 NR -16.02 58.16 461 460 _____P________ -1 -16.02 58.16 99 1 239
1873 SI MM 12:00:00 NR -16.05 58.11 460 449 _____P________ -1 -16.05 58.11 99 1 237
1873 SI MM 15:00:00 NR -16.09 58.06 449 448 _____P________ -1 -16.09 58.06 99 2 234
1873 SI MM 18:00:00 NR -16.14 57.98 448 436 _____P________ -1 -16.14 57.98 99 2 233
1873 SI MM 21:00:00 NR -16.21 57.88 436 425 _____P________ -1 -16.21 57.88 99 3 232
1873 SI MM 1873-01-02 00:00:00 NR -16.31 57.76 425 413 _____P________ -1 -16.31 57.76 99 4 231
1873 SI MM 03:00:00 NR -16.44 57.60 413 391 _____P________ -1 -16.44 57.60 99 5 230
1873 SI MM 06:00:00 NR -16.60 57.40 reunion 391 370 _____O________ -1 -16.60 57.40 99 9.90 6 229
1873 SI MM 09:00:00 NR -16.80 57.16 370 350 _____P________ -1 -16.80 57.16 99 7 229
1873 SI MM 12:00:00 NR -17.04 56.88 352 327 _____P________ -1 -17.04 56.88 99 8 228
1873 SI MM 15:00:00 NR -17.31 56.56 327 306 _____P________ -1 -17.31 56.56 99 8 227
1873 SI MM 18:00:00 NR -17.61 56.23 311 292 _____P________ -1 -17.61 56.23 99 9 227
1873 SI MM 21:00:00 NR -17.93 55.88 298 290 _____P________ -1 -17.93 55.88 99 10 226
1873 SI MM 1873-01-03 00:00:00 NR -18.27 55.52 290 268 _____P________ -1 -18.27 55.52 99 10 224
1873 SI MM 03:00:00 NR -18.63 55.15 268 229 _____P________ -1 -18.63 55.15 99 10 223
1873 SI MM 06:00:00 NR -19.00 54.80 reunion 229 197 _____O________ -1 -19.00 54.80 99 9.90 10 221
1873 SI MM 09:00:00 NR -19.40 54.46 197 183 _____P________ -1 -19.40 54.46 99 10 219
1873 SI MM 12:00:00 NR -19.82 54.11 183 175 _____P________ -1 -19.82 54.11 99 11 217
1873 SI MM 15:00:00 NR -20.25 53.77 177 174 _____P________ -1 -20.25 53.77 99 11 216
1873 SI MM 18:00:00 NR -20.68 53.43 192 189 _____P________ -1 -20.68 53.43 99 11 216
1873 SI MM 21:00:00 NR -21.10 53.12 217 217 _____P________ -1 -21.10 53.12 99 10 215
1873 SI MM 1873-01-04 00:00:00 NR -21.50 52.82 252 252 _____P________ -1 -21.50 52.82 99 9 215
1873 SI MM 03:00:00 NR -21.87 52.54 293 293 _____P________ -1 -21.87 52.54 99 9 214
1873 SI MM 06:00:00 NR -22.20 52.30 reunion 323 323 _____O________ -1 -22.20 52.30 99 9.90 7 215
1873 SI MM 09:00:00 NR -22.45 52.10 356 356 _____P________ -1 -22.45 52.10 99 6 215
1873 SI MM 12:00:00 NR -22.67 51.94 383 383 _____P________ -1 -22.67 51.94 99 5 215
1873 SI MM 15:00:00 NR -22.85 51.81 386 380 _____P________ -1 -22.85 51.81 99 4 214
1873 SI MM 18:00:00 NR -23.01 51.69 383 378 _____P________ -1 -23.01 51.69 99 4 213
1873 SI MM 21:00:00 NR -23.16 51.59 382 373 _____P________ -1 -23.16 51.59 99 3 212
1873 SI MM 1873-01-05 00:00:00 NR -23.30 51.49 377 372 _____P________ -1 -23.30 51.49 99 3 211
1873 SI MM 03:00:00 NR -23.44 51.40 372 363 _____P________ -1 -23.44 51.40 99 3 210
1873 SI MM 06:00:00 NR -23.60 51.30 reunion 365 358 _____O________ -1 -23.60 51.30 99 9.90 4 212
1873 SI MM 09:00:00 NR -23.77 51.18 359 349 _____P________ -1 -23.77 51.18 99 4 212
1873 SI MM 12:00:00 NR -23.95 51.05 352 334 _____P________ -1 -23.95 51.05 99 4 212
1873 SI MM 15:00:00 NR -24.13 50.93 334 330 _____P________ -1 -24.13 50.93 99 4 212
1873 SI MM 18:00:00 NR -24.33 50.80 330 324 _____P________ -1 -24.33 50.80 99 5 211
1873 SI MM 21:00:00 NR -24.54 50.66 328 313 _____P________ -1 -24.54 50.66 99 5 210
1873 SI MM 1873-01-06 00:00:00 NR -24.77 50.52 316 310 _____P________ -1 -24.77 50.52 99 6 209
1873 SI MM 03:00:00 NR -25.02 50.37 313 302 _____P________ -1 -25.02 50.37 99 6 209
1873 SI MM 06:00:00 NR -25.30 50.20 reunion 305 298 _____O________ -1 -25.30 50.20 99 9.90 6 208
1873 SI MM 09:00:00 NR -25.57 50.03 298 291 _____P________ -1 -25.57 50.03 99 7 208
1873 SI MM 12:00:00 NR -25.87 49.86 298 288 _____P________ -1 -25.87 49.86 99 7 208
1873 SI MM 15:00:00 NR -26.19 49.67 292 284 _____P________ -1 -26.19 49.67 99 8 207
1873 SI MM 18:00:00 NR -26.54 49.47 292 291 _____P________ -1 -26.54 49.47 99 8 207
1873 SI MM 21:00:00 NR -26.93 49.25 305 297 _____P________ -1 -26.93 49.25 99 9 207
1873 SI MM 1873-01-07 00:00:00 NR -27.35 49.02 316 316 _____P________ -1 -27.35 49.02 99 10 206
1873 SI MM 03:00:00 NR -27.80 48.77 350 350 _____P________ -1 -27.80 48.77 99 11 206
1873 SI MM 06:00:00 NR -28.30 48.50 reunion 385 385 _____O________ -1 -28.30 48.50 99 9.90 12 205
1873 SI MM 09:00:00 NR -28.92 48.16 435 435 _____P________ -1 -28.92 48.16 99 14 205
1873 SI MM 12:00:00 NR -29.60 47.80 500 500 _____P________ -1 -29.60 47.80 99 15 205
1873 SI MM 15:00:00 NR -30.31 47.42 556 556 _____P________ -1 -30.31 47.42 99 16 205
1873 SI MM 18:00:00 NR -31.02 47.03 620 620 _____P________ -1 -31.02 47.03 99 16 205
1873 SI MM 21:00:00 NR -31.71 46.65 689 689 _____P________ -1 -31.71 46.65 99 15 205
1873 SI MM 1873-01-08 00:00:00 NR -32.35 46.29 763 763 _____P________ -1 -32.35 46.29 99 13 205
1873 SI MM 03:00:00 NR -32.92 45.97 816 816 _____P________ -1 -32.92 45.97 99 12 205
1873 SI MM 06:00:00 NR -33.40 45.70 reunion 870 870 _____O________ -1 -33.40 45.70 99 9.90 9 205
1873 SI MM 09:00:00 NR -33.76 45.50 915 915 _____P________ -1 -33.76 45.50 99 7 205
1873 SI MM 12:00:00 NR -34.02 45.35 937 937 _____P________ -1 -34.02 45.35 99 5 205
1873 SI MM 15:00:00 NR -34.19 45.26 959 959 _____P________ -1 -34.19 45.26 99 3 203
1873 SI MM 18:00:00 NR -34.28 45.22 970 970 _____P________ -1 -34.28 45.22 99 1 198
1873 SI MM 21:00:00 NR -34.31 45.21 970 970 _____P________ -1 -34.31 45.21 99 0 0
1873 SI MM 1873-01-09 00:00:00 NR -34.30 45.22 970 970 _____P________ -1 -34.30 45.22 99 1 38
1873 SI MM 03:00:00 NR -34.26 45.26 970 959 _____P________ -1 -34.26 45.26 99 1 34
1873 SI MM 06:00:00 NR -34.20 45.30 reunion 959 _____O________ -1 -34.20 45.30 99 9.90 1 34